Irvine, KY

2:56 PM EDT on May 04, 2015 (GMT -0400)
London-Corbin / McKee | | Change Station
CLOSE
Current Station
Airport
Location: London-Corbin,
Elevation: 1211 ft
Nearby Weather Stations

Elev 1211 ft 37.09 °N, 84.08 °W | Updated 1 hour ago

Clear
Clear
79 °F
Feels Like 79 °F
N
4
Wind Variable Wind from South

Today
High -- | Low -- °F
--% Chance of Precip.
Yesterday
High -- | Low -- °F
Precip. -- in
6:37 AM 8:28 PM
Full, 100% visible
Pressure 30.24 in
Visibility 10.0 miles
Clouds Scattered Clouds 7000 ft
Dew Point 44 °F
Humidity 29%
Rainfall 0.00 in
Snow Depth Not available.
UV 9 out of 12
Pollen 9.50 out of 12
Air Quality Not available.
Flu Activity Sporadic
METAR KLOZ 041753Z AUTO 19003KT 10SM SCT070 26/07 A3027 RMK AO2 SLP240 T02610067 10267 20128 58007

More Conditions Fewer Conditions

Pressure 30.24 in
Visibility 10.0 miles
Clouds Scattered Clouds 7000 ft
Dew Point 44 °F
Humidity 29%
Rainfall 0.00 in
Snow Depth Not available.
UV 9 out of 12
Pollen 9.50 out of 12
Air Quality Not available.
Flu Activity Sporadic
METAR KLOZ 041753Z AUTO 19003KT 10SM SCT070 26/07 A3027 RMK AO2 SLP240 T02610067 10267 20128 58007

More Conditions Fewer Conditions

Nepal has a long way to go to dig out and rebuild from a devastating earthquake. We have teamed up with several charities and organizations to make contributing to the relief effort as easy as possible.
How you can help: Portlight Strategies | Red Cross

10-Day Weather Forecast

Almanac

Astronomy

May. 04, 2015 Rise Set
Actual Time
Civil Twilight
Nautical Twilight
Astronomical Twilight
Moon
Length of Visible Light
Length of Day
Tomorrow will be .
, % of the Moon is Illuminated

Today's Extremes

State Highs State Lows

Community

WunderPhotos

Upload Photos

1,818,665 photos uploaded!

WunderBlogs® & News

Nearby

Air Quality

  Air Quality AQ Index Pollutant
Not available.

Snow Depth

Station Depth Elevation

Earthquake Activity

City Distance Mag. Time & Date
Minimum magnitude displayed is 2.5.

Coastal Water Temperatures

Place Temperature

Stations

Nearby Weather Stations

Station Location Temp. Windchill Dew Point Humidity Wind Precip. Elev Updated Type